sensor_id;sensor_type;location;lat;lon;timestamp;P1;durP1;ratioP1;P2;durP2;ratioP2
67721;SDS011;58309;45.292;11.820;2023-03-01T00:02:00;30.02;;;15.73;;
67721;SDS011;58309;45.292;11.820;2023-03-01T00:04:26;25.10;;;14.05;;
67721;SDS011;58309;45.292;11.820;2023-03-01T00:06:52;26.35;;;14.95;;
67721;SDS011;58309;45.292;11.820;2023-03-01T00:09:18;27.40;;;14.93;;
67721;SDS011;58309;45.292;11.820;2023-03-01T00:11:44;25.33;;;14.32;;
67721;SDS011;58309;45.292;11.820;2023-03-01T00:14:09;23.38;;;14.52;;
67721;SDS011;58309;45.292;11.820;2023-03-01T00:16:36;27.67;;;14.02;;
67721;SDS011;58309;45.292;11.820;2023-03-01T00:19:06;26.92;;;14.35;;
67721;SDS011;58309;45.292;11.820;2023-03-01T00:24:01;26.70;;;13.55;;
67721;SDS011;58309;45.292;11.820;2023-03-01T00:26:27;28.80;;;14.18;;
67721;SDS011;58309;45.292;11.820;2023-03-01T00:28:53;29.23;;;14.25;;
67721;SDS011;58309;45.292;11.820;2023-03-01T00:31:24;26.05;;;13.85;;
67721;SDS011;58309;45.292;11.820;2023-03-01T00:33:52;28.30;;;15.07;;
67721;SDS011;58309;45.292;11.820;2023-03-01T00:36:22;24.65;;;13.75;;
67721;SDS011;58309;45.292;11.820;2023-03-01T00:38:48;25.25;;;12.77;;
67721;SDS011;58309;45.292;11.820;2023-03-01T00:41:15;24.75;;;13.20;;
67721;SDS011;58309;45.292;11.820;2023-03-01T00:43:41;23.80;;;12.95;;
67721;SDS011;58309;45.292;11.820;2023-03-01T00:46:18;21.15;;;12.30;;
67721;SDS011;58309;45.292;11.820;2023-03-01T00:48:45;21.55;;;12.35;;
67721;SDS011;58309;45.292;11.820;2023-03-01T00:51:12;24.77;;;12.57;;
67721;SDS011;58309;45.292;11.820;2023-03-01T00:53:43;23.80;;;12.90;;
67721;SDS011;58309;45.292;11.820;2023-03-01T00:56:10;23.40;;;12.40;;
67721;SDS011;58309;45.292;11.820;2023-03-01T00:58:36;22.52;;;12.32;;
67721;SDS011;58309;45.292;11.820;2023-03-01T01:01:10;22.25;;;12.20;;
67721;SDS011;58309;45.292;11.820;2023-03-01T01:03:47;22.98;;;12.27;;
67721;SDS011;58309;45.292;11.820;2023-03-01T01:06:28;23.63;;;11.90;;
67721;SDS011;58309;45.292;11.820;2023-03-01T01:09:02;24.60;;;12.15;;
67721;SDS011;58309;45.292;11.820;2023-03-01T01:11:29;24.55;;;11.65;;
67721;SDS011;58309;45.292;11.820;2023-03-01T01:13:55;22.50;;;12.25;;
67721;SDS011;58309;45.292;11.820;2023-03-01T01:16:22;23.67;;;11.38;;
67721;SDS011;58309;45.292;11.820;2023-03-01T01:18:50;19.25;;;10.00;;
67721;SDS011;58309;45.292;11.820;2023-03-01T01:21:16;18.45;;;11.00;;
67721;SDS011;58309;45.292;11.820;2023-03-01T01:23:44;21.20;;;11.32;;
67721;SDS011;58309;45.292;11.820;2023-03-01T01:26:29;25.27;;;11.02;;
67721;SDS011;58309;45.292;11.820;2023-03-01T01:28:55;17.80;;;10.93;;
67721;SDS011;58309;45.292;11.820;2023-03-01T01:31:21;19.70;;;10.52;;
67721;SDS011;58309;45.292;11.820;2023-03-01T01:33:49;22.55;;;11.45;;
67721;SDS011;58309;45.292;11.820;2023-03-01T01:36:15;18.08;;;10.50;;
67721;SDS011;58309;45.292;11.820;2023-03-01T01:38:41;18.40;;;10.82;;
67721;SDS011;58309;45.292;11.820;2023-03-01T01:41:07;21.90;;;11.20;;
67721;SDS011;58309;45.292;11.820;2023-03-01T01:43:43;16.35;;;10.60;;
67721;SDS011;58309;45.292;11.820;2023-03-01T01:48:49;20.70;;;10.85;;
67721;SDS011;58309;45.292;11.820;2023-03-01T01:51:20;16.63;;;10.60;;
67721;SDS011;58309;45.292;11.820;2023-03-01T01:53:53;20.17;;;10.25;;
67721;SDS011;58309;45.292;11.820;2023-03-01T01:56:23;19.48;;;10.57;;
67721;SDS011;58309;45.292;11.820;2023-03-01T01:58:52;17.92;;;9.43;;
67721;SDS011;58309;45.292;11.820;2023-03-01T02:01:19;17.38;;;10.63;;
67721;SDS011;58309;45.292;11.820;2023-03-01T02:03:45;18.02;;;11.20;;
67721;SDS011;58309;45.292;11.820;2023-03-01T02:09:20;24.30;;;10.48;;
67721;SDS011;58309;45.292;11.820;2023-03-01T02:11:48;19.85;;;10.13;;
67721;SDS011;58309;45.292;11.820;2023-03-01T02:14:15;19.85;;;10.55;;
67721;SDS011;58309;45.292;11.820;2023-03-01T02:16:41;18.92;;;10.77;;
67721;SDS011;58309;45.292;11.820;2023-03-01T02:19:07;17.45;;;10.20;;
67721;SDS011;58309;45.292;11.820;2023-03-01T02:21:42;19.20;;;10.43;;
67721;SDS011;58309;45.292;11.820;2023-03-01T02:25:07;18.75;;;10.68;;
67721;SDS011;58309;45.292;11.820;2023-03-01T02:27:26;17.40;;;9.52;;
67721;SDS011;58309;45.292;11.820;2023-03-01T02:29:59;20.45;;;10.50;;
67721;SDS011;58309;45.292;11.820;2023-03-01T02:32:24;14.77;;;8.77;;
67721;SDS011;58309;45.292;11.820;2023-03-01T02:34:54;18.60;;;9.88;;
67721;SDS011;58309;45.292;11.820;2023-03-01T02:37:20;17.85;;;10.05;;
67721;SDS011;58309;45.292;11.820;2023-03-01T02:39:51;17.05;;;9.73;;
67721;SDS011;58309;45.292;11.820;2023-03-01T02:42:23;16.73;;;10.15;;
67721;SDS011;58309;45.292;11.820;2023-03-01T02:44:53;21.58;;;10.60;;
67721;SDS011;58309;45.292;11.820;2023-03-01T02:47:19;18.30;;;10.60;;
67721;SDS011;58309;45.292;11.820;2023-03-01T02:49:44;18.92;;;10.45;;
67721;SDS011;58309;45.292;11.820;2023-03-01T02:52:26;18.05;;;10.15;;
67721;SDS011;58309;45.292;11.820;2023-03-01T02:55:09;18.15;;;9.73;;
67721;SDS011;58309;45.292;11.820;2023-03-01T02:57:38;17.90;;;9.80;;
67721;SDS011;58309;45.292;11.820;2023-03-01T03:00:08;19.67;;;11.02;;
67721;SDS011;58309;45.292;11.820;2023-03-01T03:02:44;19.33;;;10.13;;
67721;SDS011;58309;45.292;11.820;2023-03-01T03:05:14;18.30;;;9.98;;
67721;SDS011;58309;45.292;11.820;2023-03-01T03:07:43;19.27;;;10.25;;
67721;SDS011;58309;45.292;11.820;2023-03-01T03:10:15;19.38;;;10.05;;
67721;SDS011;58309;45.292;11.820;2023-03-01T03:13:05;18.45;;;9.60;;
67721;SDS011;58309;45.292;11.820;2023-03-01T03:15:34;19.08;;;10.77;;
67721;SDS011;58309;45.292;11.820;2023-03-01T03:18:05;18.20;;;9.38;;
67721;SDS011;58309;45.292;11.820;2023-03-01T03:20:32;19.05;;;10.55;;
67721;SDS011;58309;45.292;11.820;2023-03-01T03:22:58;15.07;;;9.50;;
67721;SDS011;58309;45.292;11.820;2023-03-01T03:25:24;18.13;;;9.45;;
67721;SDS011;58309;45.292;11.820;2023-03-01T03:27:52;16.17;;;10.18;;
67721;SDS011;58309;45.292;11.820;2023-03-01T03:30:25;21.27;;;9.82;;
67721;SDS011;58309;45.292;11.820;2023-03-01T03:32:56;18.42;;;10.02;;
67721;SDS011;58309;45.292;11.820;2023-03-01T03:35:24;15.35;;;9.15;;
67721;SDS011;58309;45.292;11.820;2023-03-01T03:38:01;19.95;;;10.90;;
67721;SDS011;58309;45.292;11.820;2023-03-01T03:40:40;17.95;;;9.80;;
67721;SDS011;58309;45.292;11.820;2023-03-01T03:43:09;19.25;;;10.10;;
67721;SDS011;58309;45.292;11.820;2023-03-01T03:45:39;19.05;;;9.80;;
67721;SDS011;58309;45.292;11.820;2023-03-01T03:48:06;19.63;;;9.90;;
67721;SDS011;58309;45.292;11.820;2023-03-01T03:50:33;17.95;;;9.82;;
67721;SDS011;58309;45.292;11.820;2023-03-01T03:53:02;16.45;;;8.88;;
67721;SDS011;58309;45.292;11.820;2023-03-01T03:55:30;14.98;;;9.30;;
67721;SDS011;58309;45.292;11.820;2023-03-01T03:57:57;17.08;;;10.82;;
67721;SDS011;58309;45.292;11.820;2023-03-01T04:00:27;16.95;;;9.95;;
67721;SDS011;58309;45.292;11.820;2023-03-01T04:02:53;15.18;;;9.70;;
67721;SDS011;58309;45.292;11.820;2023-03-01T04:05:21;16.27;;;9.68;;
67721;SDS011;58309;45.292;11.820;2023-03-01T04:07:48;15.82;;;9.32;;
67721;SDS011;58309;45.292;11.820;2023-03-01T04:10:15;19.20;;;9.75;;
67721;SDS011;58309;45.292;11.820;2023-03-01T04:12:42;15.07;;;9.30;;
67721;SDS011;58309;45.292;11.820;2023-03-01T04:15:08;14.43;;;9.38;;
67721;SDS011;58309;45.292;11.820;2023-03-01T04:17:47;15.55;;;9.20;;
67721;SDS011;58309;45.292;11.820;2023-03-01T04:20:15;16.35;;;9.40;;
67721;SDS011;58309;45.292;11.820;2023-03-01T04:22:50;15.98;;;8.75;;
67721;SDS011;58309;45.292;11.820;2023-03-01T04:25:25;19.30;;;8.93;;
67721;SDS011;58309;45.292;11.820;2023-03-01T04:27:51;15.75;;;8.98;;
67721;SDS011;58309;45.292;11.820;2023-03-01T04:30:16;14.82;;;8.65;;
67721;SDS011;58309;45.292;11.820;2023-03-01T04:32:42;15.65;;;8.90;;
67721;SDS011;58309;45.292;11.820;2023-03-01T04:35:08;19.90;;;8.85;;
67721;SDS011;58309;45.292;11.820;2023-03-01T04:37:34;17.58;;;9.88;;
67721;SDS011;58309;45.292;11.820;2023-03-01T04:40:00;17.42;;;9.95;;
67721;SDS011;58309;45.292;11.820;2023-03-01T04:42:37;15.82;;;9.63;;
67721;SDS011;58309;45.292;11.820;2023-03-01T04:45:02;18.80;;;10.07;;
67721;SDS011;58309;45.292;11.820;2023-03-01T04:47:38;19.08;;;10.57;;
67721;SDS011;58309;45.292;11.820;2023-03-01T04:50:11;18.55;;;10.45;;
67721;SDS011;58309;45.292;11.820;2023-03-01T04:52:38;19.83;;;10.38;;
67721;SDS011;58309;45.292;11.820;2023-03-01T04:55:04;19.88;;;10.38;;
67721;SDS011;58309;45.292;11.820;2023-03-01T04:57:30;20.67;;;11.20;;
67721;SDS011;58309;45.292;11.820;2023-03-01T04:59:56;18.88;;;9.70;;
67721;SDS011;58309;45.292;11.820;2023-03-01T05:02:22;17.65;;;9.40;;
67721;SDS011;58309;45.292;11.820;2023-03-01T05:04:48;14.85;;;9.38;;
67721;SDS011;58309;45.292;11.820;2023-03-01T05:07:14;14.55;;;8.70;;
67721;SDS011;58309;45.292;11.820;2023-03-01T05:09:44;17.35;;;8.65;;
67721;SDS011;58309;45.292;11.820;2023-03-01T05:12:11;14.45;;;7.93;;
67721;SDS011;58309;45.292;11.820;2023-03-01T05:14:37;12.82;;;8.68;;
67721;SDS011;58309;45.292;11.820;2023-03-01T05:17:03;13.95;;;8.30;;
67721;SDS011;58309;45.292;11.820;2023-03-01T05:19:29;14.40;;;8.82;;
67721;SDS011;58309;45.292;11.820;2023-03-01T05:21:56;17.42;;;8.98;;
67721;SDS011;58309;45.292;11.820;2023-03-01T05:24:32;15.48;;;8.75;;
67721;SDS011;58309;45.292;11.820;2023-03-01T05:26:58;14.05;;;8.32;;
67721;SDS011;58309;45.292;11.820;2023-03-01T05:29:25;14.13;;;8.30;;
67721;SDS011;58309;45.292;11.820;2023-03-01T05:34:28;23.35;;;12.55;;
67721;SDS011;58309;45.292;11.820;2023-03-01T05:36:55;19.30;;;11.23;;
67721;SDS011;58309;45.292;11.820;2023-03-01T05:39:21;15.35;;;9.32;;
67721;SDS011;58309;45.292;11.820;2023-03-01T05:41:52;15.35;;;9.20;;
67721;SDS011;58309;45.292;11.820;2023-03-01T05:44:19;14.10;;;8.88;;
67721;SDS011;58309;45.292;11.820;2023-03-01T05:46:45;12.40;;;8.52;;
67721;SDS011;58309;45.292;11.820;2023-03-01T05:49:11;13.82;;;8.40;;
67721;SDS011;58309;45.292;11.820;2023-03-01T05:51:38;14.23;;;8.38;;
67721;SDS011;58309;45.292;11.820;2023-03-01T05:54:04;15.73;;;9.10;;
67721;SDS011;58309;45.292;11.820;2023-03-01T05:56:32;14.85;;;8.88;;
67721;SDS011;58309;45.292;11.820;2023-03-01T05:59:01;16.42;;;8.70;;
67721;SDS011;58309;45.292;11.820;2023-03-01T06:01:28;15.82;;;9.05;;
67721;SDS011;58309;45.292;11.820;2023-03-01T06:03:54;12.88;;;8.13;;
67721;SDS011;58309;45.292;11.820;2023-03-01T06:06:21;11.73;;;7.90;;
67721;SDS011;58309;45.292;11.820;2023-03-01T06:08:47;14.80;;;9.05;;
67721;SDS011;58309;45.292;11.820;2023-03-01T06:11:13;11.75;;;8.00;;
67721;SDS011;58309;45.292;11.820;2023-03-01T06:13:38;16.90;;;8.63;;
67721;SDS011;58309;45.292;11.820;2023-03-01T06:16:04;14.35;;;8.80;;
67721;SDS011;58309;45.292;11.820;2023-03-01T06:18:31;15.57;;;8.30;;
67721;SDS011;58309;45.292;11.820;2023-03-01T06:20:57;15.63;;;8.80;;
67721;SDS011;58309;45.292;11.820;2023-03-01T06:23:22;13.60;;;8.00;;
67721;SDS011;58309;45.292;11.820;2023-03-01T06:25:49;13.32;;;8.90;;
67721;SDS011;58309;45.292;11.820;2023-03-01T06:28:14;14.73;;;8.55;;
67721;SDS011;58309;45.292;11.820;2023-03-01T06:30:40;14.10;;;8.13;;
67721;SDS011;58309;45.292;11.820;2023-03-01T06:33:06;13.25;;;8.20;;
67721;SDS011;58309;45.292;11.820;2023-03-01T06:35:31;11.68;;;8.45;;
67721;SDS011;58309;45.292;11.820;2023-03-01T06:37:57;14.52;;;8.18;;
67721;SDS011;58309;45.292;11.820;2023-03-01T06:40:25;11.68;;;8.10;;
67721;SDS011;58309;45.292;11.820;2023-03-01T06:42:51;12.52;;;7.90;;
67721;SDS011;58309;45.292;11.820;2023-03-01T06:45:17;14.75;;;8.95;;
67721;SDS011;58309;45.292;11.820;2023-03-01T06:47:43;12.95;;;8.18;;
67721;SDS011;58309;45.292;11.820;2023-03-01T06:50:09;14.30;;;8.57;;
67721;SDS011;58309;45.292;11.820;2023-03-01T06:52:35;17.88;;;8.75;;
67721;SDS011;58309;45.292;11.820;2023-03-01T06:55:01;15.48;;;8.52;;
67721;SDS011;58309;45.292;11.820;2023-03-01T06:57:27;13.57;;;8.82;;
67721;SDS011;58309;45.292;11.820;2023-03-01T06:59:52;14.25;;;7.95;;
67721;SDS011;58309;45.292;11.820;2023-03-01T07:02:18;14.55;;;9.27;;
67721;SDS011;58309;45.292;11.820;2023-03-01T07:04:44;13.25;;;9.48;;
67721;SDS011;58309;45.292;11.820;2023-03-01T07:07:09;14.50;;;8.80;;
67721;SDS011;58309;45.292;11.820;2023-03-01T07:09:35;13.90;;;8.18;;
67721;SDS011;58309;45.292;11.820;2023-03-01T07:12:00;15.98;;;9.77;;
67721;SDS011;58309;45.292;11.820;2023-03-01T07:14:26;16.13;;;8.77;;
67721;SDS011;58309;45.292;11.820;2023-03-01T07:16:52;12.75;;;7.95;;
67721;SDS011;58309;45.292;11.820;2023-03-01T07:19:19;13.02;;;8.52;;
67721;SDS011;58309;45.292;11.820;2023-03-01T07:21:45;13.32;;;7.97;;
67721;SDS011;58309;45.292;11.820;2023-03-01T07:24:11;14.30;;;7.93;;
67721;SDS011;58309;45.292;11.820;2023-03-01T07:26:37;14.30;;;8.43;;
67721;SDS011;58309;45.292;11.820;2023-03-01T07:29:03;13.05;;;7.90;;
67721;SDS011;58309;45.292;11.820;2023-03-01T07:31:30;13.07;;;8.13;;
67721;SDS011;58309;45.292;11.820;2023-03-01T07:33:57;14.77;;;9.05;;
67721;SDS011;58309;45.292;11.820;2023-03-01T07:36:22;13.52;;;8.32;;
67721;SDS011;58309;45.292;11.820;2023-03-01T07:38:48;11.02;;;7.35;;
67721;SDS011;58309;45.292;11.820;2023-03-01T07:41:14;12.48;;;8.05;;
67721;SDS011;58309;45.292;11.820;2023-03-01T07:43:40;13.43;;;8.25;;
67721;SDS011;58309;45.292;11.820;2023-03-01T07:46:06;12.82;;;7.93;;
67721;SDS011;58309;45.292;11.820;2023-03-01T07:48:32;12.85;;;7.82;;
67721;SDS011;58309;45.292;11.820;2023-03-01T07:50:58;12.70;;;8.10;;
67721;SDS011;58309;45.292;11.820;2023-03-01T07:53:29;12.13;;;7.32;;
67721;SDS011;58309;45.292;11.820;2023-03-01T07:56:09;13.05;;;8.15;;
67721;SDS011;58309;45.292;11.820;2023-03-01T07:58:40;13.50;;;8.88;;
67721;SDS011;58309;45.292;11.820;2023-03-01T08:01:08;15.07;;;7.72;;
67721;SDS011;58309;45.292;11.820;2023-03-01T08:03:36;13.40;;;8.40;;
67721;SDS011;58309;45.292;11.820;2023-03-01T08:06:03;11.70;;;8.32;;
67721;SDS011;58309;45.292;11.820;2023-03-01T08:08:29;12.02;;;8.45;;
67721;SDS011;58309;45.292;11.820;2023-03-01T08:10:56;12.88;;;7.65;;
67721;SDS011;58309;45.292;11.820;2023-03-01T08:13:22;14.73;;;8.13;;
67721;SDS011;58309;45.292;11.820;2023-03-01T08:15:48;11.02;;;7.43;;
67721;SDS011;58309;45.292;11.820;2023-03-01T08:18:15;11.18;;;7.57;;
67721;SDS011;58309;45.292;11.820;2023-03-01T08:20:41;13.43;;;8.15;;
67721;SDS011;58309;45.292;11.820;2023-03-01T08:23:06;11.75;;;7.75;;
67721;SDS011;58309;45.292;11.820;2023-03-01T08:25:32;14.13;;;7.43;;
67721;SDS011;58309;45.292;11.820;2023-03-01T08:27:57;11.13;;;7.47;;
67721;SDS011;58309;45.292;11.820;2023-03-01T08:30:23;15.25;;;7.15;;
67721;SDS011;58309;45.292;11.820;2023-03-01T08:32:49;12.65;;;7.50;;
67721;SDS011;58309;45.292;11.820;2023-03-01T08:35:15;11.55;;;6.80;;
67721;SDS011;58309;45.292;11.820;2023-03-01T08:37:41;12.75;;;7.25;;
67721;SDS011;58309;45.292;11.820;2023-03-01T08:40:07;15.93;;;7.38;;
67721;SDS011;58309;45.292;11.820;2023-03-01T08:42:35;11.02;;;7.78;;
67721;SDS011;58309;45.292;11.820;2023-03-01T08:45:01;15.30;;;7.20;;
67721;SDS011;58309;45.292;11.820;2023-03-01T08:47:27;11.88;;;7.50;;
67721;SDS011;58309;45.292;11.820;2023-03-01T08:49:52;12.48;;;7.45;;
67721;SDS011;58309;45.292;11.820;2023-03-01T08:52:19;11.13;;;7.38;;
67721;SDS011;58309;45.292;11.820;2023-03-01T08:54:45;14.30;;;7.10;;
67721;SDS011;58309;45.292;11.820;2023-03-01T08:57:12;11.77;;;6.95;;
67721;SDS011;58309;45.292;11.820;2023-03-01T08:59:38;14.43;;;7.25;;
67721;SDS011;58309;45.292;11.820;2023-03-01T09:02:04;15.18;;;7.93;;
67721;SDS011;58309;45.292;11.820;2023-03-01T09:04:30;11.32;;;7.20;;
67721;SDS011;58309;45.292;11.820;2023-03-01T09:06:56;9.88;;;7.85;;
67721;SDS011;58309;45.292;11.820;2023-03-01T09:09:22;11.27;;;7.35;;
67721;SDS011;58309;45.292;11.820;2023-03-01T09:11:47;15.57;;;7.38;;
67721;SDS011;58309;45.292;11.820;2023-03-01T09:14:15;12.70;;;8.13;;
67721;SDS011;58309;45.292;11.820;2023-03-01T09:16:40;10.63;;;7.22;;
67721;SDS011;58309;45.292;11.820;2023-03-01T09:19:06;14.20;;;7.30;;
67721;SDS011;58309;45.292;11.820;2023-03-01T09:21:32;8.95;;;5.55;;
67721;SDS011;58309;45.292;11.820;2023-03-01T09:23:57;10.35;;;6.88;;
67721;SDS011;58309;45.292;11.820;2023-03-01T09:26:23;9.98;;;6.57;;
67721;SDS011;58309;45.292;11.820;2023-03-01T09:28:50;14.18;;;7.32;;
67721;SDS011;58309;45.292;11.820;2023-03-01T09:31:18;10.65;;;6.32;;
67721;SDS011;58309;45.292;11.820;2023-03-01T09:33:47;7.20;;;5.65;;
67721;SDS011;58309;45.292;11.820;2023-03-01T09:36:15;8.02;;;5.40;;
67721;SDS011;58309;45.292;11.820;2023-03-01T09:38:42;8.85;;;5.70;;
67721;SDS011;58309;45.292;11.820;2023-03-01T09:41:09;9.30;;;5.65;;
67721;SDS011;58309;45.292;11.820;2023-03-01T09:43:55;10.27;;;5.60;;
67721;SDS011;58309;45.292;11.820;2023-03-01T09:46:37;11.50;;;5.13;;
67721;SDS011;58309;45.292;11.820;2023-03-01T09:49:17;11.00;;;5.30;;
67721;SDS011;58309;45.292;11.820;2023-03-01T09:52:09;13.48;;;5.82;;
67721;SDS011;58309;45.292;11.820;2023-03-01T09:54:46;9.65;;;4.95;;
67721;SDS011;58309;45.292;11.820;2023-03-01T09:59:56;10.63;;;5.40;;
67721;SDS011;58309;45.292;11.820;2023-03-01T10:05:30;9.90;;;4.78;;
67721;SDS011;58309;45.292;11.820;2023-03-01T10:10:56;6.80;;;4.77;;
67721;SDS011;58309;45.292;11.820;2023-03-01T10:13:32;13.93;;;5.57;;
67721;SDS011;58309;45.292;11.820;2023-03-01T10:16:26;8.65;;;5.32;;
67721;SDS011;58309;45.292;11.820;2023-03-01T10:18:59;12.68;;;5.32;;
67721;SDS011;58309;45.292;11.820;2023-03-01T10:21:28;10.80;;;5.20;;
67721;SDS011;58309;45.292;11.820;2023-03-01T10:24:14;9.95;;;4.47;;
67721;SDS011;58309;45.292;11.820;2023-03-01T10:29:12;13.70;;;5.35;;
67721;SDS011;58309;45.292;11.820;2023-03-01T10:31:39;7.63;;;4.72;;
67721;SDS011;58309;45.292;11.820;2023-03-01T10:36:44;9.55;;;5.13;;
67721;SDS011;58309;45.292;11.820;2023-03-01T10:39:14;11.98;;;5.60;;
67721;SDS011;58309;45.292;11.820;2023-03-01T10:42:01;10.90;;;5.60;;
67721;SDS011;58309;45.292;11.820;2023-03-01T10:47:16;15.32;;;6.00;;
67721;SDS011;58309;45.292;11.820;2023-03-01T10:49:54;11.40;;;5.70;;
67721;SDS011;58309;45.292;11.820;2023-03-01T10:52:26;11.40;;;5.82;;
67721;SDS011;58309;45.292;11.820;2023-03-01T10:54:56;11.68;;;6.45;;
67721;SDS011;58309;45.292;11.820;2023-03-01T10:57:32;8.38;;;6.20;;
67721;SDS011;58309;45.292;11.820;2023-03-01T11:00:23;11.40;;;6.15;;
67721;SDS011;58309;45.292;11.820;2023-03-01T11:03:11;11.55;;;6.30;;
67721;SDS011;58309;45.292;11.820;2023-03-01T11:05:37;10.38;;;5.97;;
67721;SDS011;58309;45.292;11.820;2023-03-01T11:11:19;10.25;;;5.78;;
67721;SDS011;58309;45.292;11.820;2023-03-01T11:13:59;12.40;;;6.05;;
67721;SDS011;58309;45.292;11.820;2023-03-01T11:16:41;15.27;;;6.38;;
67721;SDS011;58309;45.292;11.820;2023-03-01T11:21:34;12.73;;;6.63;;
67721;SDS011;58309;45.292;11.820;2023-03-01T11:24:06;13.30;;;6.47;;
67721;SDS011;58309;45.292;11.820;2023-03-01T11:26:36;13.23;;;6.30;;
67721;SDS011;58309;45.292;11.820;2023-03-01T11:32:07;15.75;;;6.88;;
67721;SDS011;58309;45.292;11.820;2023-03-01T11:34:54;13.40;;;7.88;;
67721;SDS011;58309;45.292;11.820;2023-03-01T11:37:38;10.30;;;5.97;;
67721;SDS011;58309;45.292;11.820;2023-03-01T11:40:13;10.60;;;6.00;;
67721;SDS011;58309;45.292;11.820;2023-03-01T11:54:06;15.45;;;8.10;;
67721;SDS011;58309;45.292;11.820;2023-03-01T11:56:38;17.85;;;7.65;;
67721;SDS011;58309;45.292;11.820;2023-03-01T12:07:36;13.18;;;7.05;;
67721;SDS011;58309;45.292;11.820;2023-03-01T12:32:15;13.90;;;6.00;;
67721;SDS011;58309;45.292;11.820;2023-03-01T12:48:54;13.52;;;6.90;;
67721;SDS011;58309;45.292;11.820;2023-03-01T12:51:28;14.63;;;7.20;;
67721;SDS011;58309;45.292;11.820;2023-03-01T12:53:57;14.38;;;7.32;;
67721;SDS011;58309;45.292;11.820;2023-03-01T12:56:25;18.05;;;7.53;;
67721;SDS011;58309;45.292;11.820;2023-03-01T13:07:07;18.25;;;7.95;;
67721;SDS011;58309;45.292;11.820;2023-03-01T13:17:48;15.77;;;7.63;;
67721;SDS011;58309;45.292;11.820;2023-03-01T13:20:19;16.80;;;7.10;;
67721;SDS011;58309;45.292;11.820;2023-03-01T13:22:48;13.02;;;6.68;;
67721;SDS011;58309;45.292;11.820;2023-03-01T13:25:26;18.73;;;7.93;;
67721;SDS011;58309;45.292;11.820;2023-03-01T13:27:52;13.52;;;6.93;;
67721;SDS011;58309;45.292;11.820;2023-03-01T13:31:04;13.82;;;7.50;;
67721;SDS011;58309;45.292;11.820;2023-03-01T13:35:59;16.25;;;7.40;;
67721;SDS011;58309;45.292;11.820;2023-03-01T13:46:57;15.27;;;8.93;;
67721;SDS011;58309;45.292;11.820;2023-03-01T13:49:28;13.77;;;8.50;;
67721;SDS011;58309;45.292;11.820;2023-03-01T13:51:58;12.93;;;8.68;;
67721;SDS011;58309;45.292;11.820;2023-03-01T13:54:31;16.95;;;8.75;;
67721;SDS011;58309;45.292;11.820;2023-03-01T13:56:58;16.45;;;9.38;;
67721;SDS011;58309;45.292;11.820;2023-03-01T13:59:26;13.10;;;9.05;;
67721;SDS011;58309;45.292;11.820;2023-03-01T14:01:53;15.60;;;9.40;;
67721;SDS011;58309;45.292;11.820;2023-03-01T14:04:25;15.50;;;9.32;;
67721;SDS011;58309;45.292;11.820;2023-03-01T14:07:08;15.82;;;9.82;;
67721;SDS011;58309;45.292;11.820;2023-03-01T14:09:45;17.02;;;9.00;;
67721;SDS011;58309;45.292;11.820;2023-03-01T14:20:29;13.13;;;8.85;;
67721;SDS011;58309;45.292;11.820;2023-03-01T14:23:01;14.68;;;9.70;;
67721;SDS011;58309;45.292;11.820;2023-03-01T14:25:34;15.85;;;9.23;;
67721;SDS011;58309;45.292;11.820;2023-03-01T14:30:59;17.40;;;11.43;;
67721;SDS011;58309;45.292;11.820;2023-03-01T14:33:27;15.10;;;9.48;;
67721;SDS011;58309;45.292;11.820;2023-03-01T14:38:30;14.95;;;9.95;;
67721;SDS011;58309;45.292;11.820;2023-03-01T14:41:20;13.35;;;9.32;;
67721;SDS011;58309;45.292;11.820;2023-03-01T14:43:52;15.02;;;9.80;;
67721;SDS011;58309;45.292;11.820;2023-03-01T14:48:49;14.52;;;9.35;;
67721;SDS011;58309;45.292;11.820;2023-03-01T14:51:19;15.48;;;10.15;;
67721;SDS011;58309;45.292;11.820;2023-03-01T14:53:45;14.07;;;9.73;;
67721;SDS011;58309;45.292;11.820;2023-03-01T14:56:14;17.02;;;11.25;;
67721;SDS011;58309;45.292;11.820;2023-03-01T14:58:44;15.30;;;9.75;;
67721;SDS011;58309;45.292;11.820;2023-03-01T15:01:15;15.57;;;10.57;;
67721;SDS011;58309;45.292;11.820;2023-03-01T15:03:46;17.65;;;10.88;;
67721;SDS011;58309;45.292;11.820;2023-03-01T15:06:18;17.58;;;10.50;;
67721;SDS011;58309;45.292;11.820;2023-03-01T15:08:48;16.05;;;10.00;;
67721;SDS011;58309;45.292;11.820;2023-03-01T15:11:21;14.55;;;9.77;;
67721;SDS011;58309;45.292;11.820;2023-03-01T15:13:48;11.70;;;7.32;;
67721;SDS011;58309;45.292;11.820;2023-03-01T15:16:18;9.90;;;7.00;;
67721;SDS011;58309;45.292;11.820;2023-03-01T15:18:55;11.32;;;7.55;;
67721;SDS011;58309;45.292;11.820;2023-03-01T15:21:25;11.10;;;7.90;;
67721;SDS011;58309;45.292;11.820;2023-03-01T15:23:59;9.85;;;7.30;;
67721;SDS011;58309;45.292;11.820;2023-03-01T15:26:43;14.88;;;7.10;;
67721;SDS011;58309;45.292;11.820;2023-03-01T15:29:32;10.23;;;6.80;;
67721;SDS011;58309;45.292;11.820;2023-03-01T15:34:34;10.68;;;7.07;;
67721;SDS011;58309;45.292;11.820;2023-03-01T15:37:05;10.48;;;7.28;;
67721;SDS011;58309;45.292;11.820;2023-03-01T15:42:12;10.93;;;6.70;;
67721;SDS011;58309;45.292;11.820;2023-03-01T15:45:08;10.07;;;6.85;;
67721;SDS011;58309;45.292;11.820;2023-03-01T15:47:33;14.65;;;6.60;;
67721;SDS011;58309;45.292;11.820;2023-03-01T15:50:01;20.10;;;6.97;;
67721;SDS011;58309;45.292;11.820;2023-03-01T15:55:03;10.95;;;6.50;;
67721;SDS011;58309;45.292;11.820;2023-03-01T15:57:31;11.90;;;5.40;;
67721;SDS011;58309;45.292;11.820;2023-03-01T15:59:57;8.65;;;4.57;;
67721;SDS011;58309;45.292;11.820;2023-03-01T16:02:23;8.18;;;5.03;;
67721;SDS011;58309;45.292;11.820;2023-03-01T16:04:49;10.70;;;5.13;;
67721;SDS011;58309;45.292;11.820;2023-03-01T16:07:15;14.88;;;6.10;;
67721;SDS011;58309;45.292;11.820;2023-03-01T16:12:56;14.85;;;5.50;;
67721;SDS011;58309;45.292;11.820;2023-03-01T16:15:23;11.63;;;5.40;;
67721;SDS011;58309;45.292;11.820;2023-03-01T16:17:51;10.77;;;5.40;;
67721;SDS011;58309;45.292;11.820;2023-03-01T16:20:17;11.00;;;5.32;;
67721;SDS011;58309;45.292;11.820;2023-03-01T16:22:43;14.13;;;5.35;;
67721;SDS011;58309;45.292;11.820;2023-03-01T16:25:14;9.48;;;5.10;;
67721;SDS011;58309;45.292;11.820;2023-03-01T16:27:44;11.75;;;6.55;;
67721;SDS011;58309;45.292;11.820;2023-03-01T16:30:12;12.93;;;5.78;;
67721;SDS011;58309;45.292;11.820;2023-03-01T16:32:39;10.75;;;6.18;;
67721;SDS011;58309;45.292;11.820;2023-03-01T16:35:09;10.35;;;5.32;;
67721;SDS011;58309;45.292;11.820;2023-03-01T16:37:36;11.95;;;5.47;;
67721;SDS011;58309;45.292;11.820;2023-03-01T16:40:03;16.67;;;5.97;;
67721;SDS011;58309;45.292;11.820;2023-03-01T16:42:33;11.30;;;5.25;;
67721;SDS011;58309;45.292;11.820;2023-03-01T16:44:59;11.48;;;6.10;;
67721;SDS011;58309;45.292;11.820;2023-03-01T16:47:26;10.85;;;5.63;;
67721;SDS011;58309;45.292;11.820;2023-03-01T16:49:52;10.82;;;6.00;;
67721;SDS011;58309;45.292;11.820;2023-03-01T16:52:19;8.77;;;5.45;;
67721;SDS011;58309;45.292;11.820;2023-03-01T16:54:45;5.82;;;4.35;;
67721;SDS011;58309;45.292;11.820;2023-03-01T16:57:11;4.80;;;4.30;;
67721;SDS011;58309;45.292;11.820;2023-03-01T16:59:37;7.82;;;4.50;;